sensor_id;sensor_type;location;lat;lon;timestamp;temperature;humidity
2999;DHT22;1509;51.964;7.628;2023-04-24T00:01:42;11.40;99.90
2999;DHT22;1509;51.964;7.628;2023-04-24T00:04:08;11.40;99.90
2999;DHT22;1509;51.964;7.628;2023-04-24T00:06:37;11.40;99.90
2999;DHT22;1509;51.964;7.628;2023-04-24T00:09:04;11.50;99.90
2999;DHT22;1509;51.964;7.628;2023-04-24T00:11:30;11.50;99.90
2999;DHT22;1509;51.964;7.628;2023-04-24T00:13:57;11.40;99.90
2999;DHT22;1509;51.964;7.628;2023-04-24T00:16:23;11.40;99.90
2999;DHT22;1509;51.964;7.628;2023-04-24T00:18:49;11.40;99.90
2999;DHT22;1509;51.964;7.628;2023-04-24T00:21:15;11.40;99.90
2999;DHT22;1509;51.964;7.628;2023-04-24T00:23:43;11.40;99.90
2999;DHT22;1509;51.964;7.628;2023-04-24T00:26:09;11.40;99.90
2999;DHT22;1509;51.964;7.628;2023-04-24T00:28:35;11.50;99.90
2999;DHT22;1509;51.964;7.628;2023-04-24T00:31:09;11.40;99.90
2999;DHT22;1509;51.964;7.628;2023-04-24T00:33:37;11.40;99.90
2999;DHT22;1509;51.964;7.628;2023-04-24T00:36:03;11.40;99.90
2999;DHT22;1509;51.964;7.628;2023-04-24T00:38:37;11.40;99.90
2999;DHT22;1509;51.964;7.628;2023-04-24T00:41:06;11.30;99.90
2999;DHT22;1509;51.964;7.628;2023-04-24T00:43:32;11.40;99.90
2999;DHT22;1509;51.964;7.628;2023-04-24T00:45:57;11.40;99.90
2999;DHT22;1509;51.964;7.628;2023-04-24T00:48:25;11.30;99.90
2999;DHT22;1509;51.964;7.628;2023-04-24T00:50:51;11.40;99.90
2999;DHT22;1509;51.964;7.628;2023-04-24T00:53:18;11.40;99.90
2999;DHT22;1509;51.964;7.628;2023-04-24T00:55:44;11.40;99.90
2999;DHT22;1509;51.964;7.628;2023-04-24T00:58:10;11.30;99.90
2999;DHT22;1509;51.964;7.628;2023-04-24T01:00:36;11.30;99.90
2999;DHT22;1509;51.964;7.628;2023-04-24T01:03:04;11.30;99.90
2999;DHT22;1509;51.964;7.628;2023-04-24T01:05:32;11.30;99.90
2999;DHT22;1509;51.964;7.628;2023-04-24T01:07:58;11.30;99.90
2999;DHT22;1509;51.964;7.628;2023-04-24T01:10:26;11.30;99.90
2999;DHT22;1509;51.964;7.628;2023-04-24T01:12:53;11.30;99.90
2999;DHT22;1509;51.964;7.628;2023-04-24T01:15:19;11.20;99.90
2999;DHT22;1509;51.964;7.628;2023-04-24T01:17:44;11.10;99.90
2999;DHT22;1509;51.964;7.628;2023-04-24T01:20:10;11.10;99.90
2999;DHT22;1509;51.964;7.628;2023-04-24T01:22:36;11.10;99.90
2999;DHT22;1509;51.964;7.628;2023-04-24T01:25:03;11.20;99.90
2999;DHT22;1509;51.964;7.628;2023-04-24T01:27:28;11.10;99.90
2999;DHT22;1509;51.964;7.628;2023-04-24T01:29:54;11.20;99.90
2999;DHT22;1509;51.964;7.628;2023-04-24T01:32:20;11.10;99.90
2999;DHT22;1509;51.964;7.628;2023-04-24T01:34:47;11.20;99.90
2999;DHT22;1509;51.964;7.628;2023-04-24T01:37:13;11.20;99.90
2999;DHT22;1509;51.964;7.628;2023-04-24T01:39:39;11.30;99.90
2999;DHT22;1509;51.964;7.628;2023-04-24T01:42:05;11.20;99.90
2999;DHT22;1509;51.964;7.628;2023-04-24T01:44:31;11.30;99.90
2999;DHT22;1509;51.964;7.628;2023-04-24T01:47:00;11.30;99.90
2999;DHT22;1509;51.964;7.628;2023-04-24T01:49:26;11.30;99.90
2999;DHT22;1509;51.964;7.628;2023-04-24T01:51:52;11.30;99.90
2999;DHT22;1509;51.964;7.628;2023-04-24T01:54:18;11.30;99.90
2999;DHT22;1509;51.964;7.628;2023-04-24T01:56:45;11.30;99.90
2999;DHT22;1509;51.964;7.628;2023-04-24T01:59:11;11.40;99.90
2999;DHT22;1509;51.964;7.628;2023-04-24T02:01:38;11.30;99.90
2999;DHT22;1509;51.964;7.628;2023-04-24T02:04:05;11.30;99.90
2999;DHT22;1509;51.964;7.628;2023-04-24T02:06:31;11.30;99.90
2999;DHT22;1509;51.964;7.628;2023-04-24T02:08:58;11.20;99.90
2999;DHT22;1509;51.964;7.628;2023-04-24T02:11:24;11.20;99.90
2999;DHT22;1509;51.964;7.628;2023-04-24T02:13:50;11.20;99.90
2999;DHT22;1509;51.964;7.628;2023-04-24T02:16:17;11.20;99.90
2999;DHT22;1509;51.964;7.628;2023-04-24T02:18:43;11.10;99.90
2999;DHT22;1509;51.964;7.628;2023-04-24T02:21:09;11.10;99.90
2999;DHT22;1509;51.964;7.628;2023-04-24T02:23:34;11.10;99.90
2999;DHT22;1509;51.964;7.628;2023-04-24T02:26:00;11.10;99.90
2999;DHT22;1509;51.964;7.628;2023-04-24T02:28:26;11.10;99.90
2999;DHT22;1509;51.964;7.628;2023-04-24T02:30:52;11.00;99.90
2999;DHT22;1509;51.964;7.628;2023-04-24T02:33:17;11.00;99.90
2999;DHT22;1509;51.964;7.628;2023-04-24T02:35:43;10.90;99.90
2999;DHT22;1509;51.964;7.628;2023-04-24T02:38:09;10.90;99.90
2999;DHT22;1509;51.964;7.628;2023-04-24T02:40:34;10.90;99.90
2999;DHT22;1509;51.964;7.628;2023-04-24T02:43:00;10.80;99.90
2999;DHT22;1509;51.964;7.628;2023-04-24T02:45:26;10.80;99.90
2999;DHT22;1509;51.964;7.628;2023-04-24T02:47:51;10.80;99.90
2999;DHT22;1509;51.964;7.628;2023-04-24T02:50:17;10.70;99.90
2999;DHT22;1509;51.964;7.628;2023-04-24T02:52:43;10.70;99.90
2999;DHT22;1509;51.964;7.628;2023-04-24T02:55:09;10.70;99.90
2999;DHT22;1509;51.964;7.628;2023-04-24T02:57:35;10.60;99.90
2999;DHT22;1509;51.964;7.628;2023-04-24T03:00:00;10.70;99.90
2999;DHT22;1509;51.964;7.628;2023-04-24T03:02:26;10.50;99.90
2999;DHT22;1509;51.964;7.628;2023-04-24T03:04:52;10.50;99.90
2999;DHT22;1509;51.964;7.628;2023-04-24T03:07:17;10.50;99.90
2999;DHT22;1509;51.964;7.628;2023-04-24T03:09:46;10.50;99.90
2999;DHT22;1509;51.964;7.628;2023-04-24T03:12:12;10.40;99.90
2999;DHT22;1509;51.964;7.628;2023-04-24T03:14:38;10.50;99.90
2999;DHT22;1509;51.964;7.628;2023-04-24T03:17:04;10.40;99.90
2999;DHT22;1509;51.964;7.628;2023-04-24T03:19:33;10.50;99.90
2999;DHT22;1509;51.964;7.628;2023-04-24T03:21:58;10.40;99.90
2999;DHT22;1509;51.964;7.628;2023-04-24T03:24:24;10.40;99.90
2999;DHT22;1509;51.964;7.628;2023-04-24T03:26:50;10.40;99.90
2999;DHT22;1509;51.964;7.628;2023-04-24T03:29:15;10.30;99.90
2999;DHT22;1509;51.964;7.628;2023-04-24T03:31:41;10.30;99.90
2999;DHT22;1509;51.964;7.628;2023-04-24T03:34:06;10.20;99.90
2999;DHT22;1509;51.964;7.628;2023-04-24T03:36:32;10.20;99.90
2999;DHT22;1509;51.964;7.628;2023-04-24T03:38:58;10.20;99.90
2999;DHT22;1509;51.964;7.628;2023-04-24T03:41:23;10.10;99.90
2999;DHT22;1509;51.964;7.628;2023-04-24T03:43:49;10.10;99.90
2999;DHT22;1509;51.964;7.628;2023-04-24T03:46:15;10.10;99.90
2999;DHT22;1509;51.964;7.628;2023-04-24T03:48:40;9.90;99.90
2999;DHT22;1509;51.964;7.628;2023-04-24T03:51:06;9.80;99.90
2999;DHT22;1509;51.964;7.628;2023-04-24T03:53:32;9.60;99.90
2999;DHT22;1509;51.964;7.628;2023-04-24T03:55:57;9.60;99.90
2999;DHT22;1509;51.964;7.628;2023-04-24T03:58:23;9.50;99.90
2999;DHT22;1509;51.964;7.628;2023-04-24T04:00:52;9.40;99.90
2999;DHT22;1509;51.964;7.628;2023-04-24T04:03:17;9.40;99.90
2999;DHT22;1509;51.964;7.628;2023-04-24T04:05:43;9.40;99.90
2999;DHT22;1509;51.964;7.628;2023-04-24T04:08:08;9.40;99.90
2999;DHT22;1509;51.964;7.628;2023-04-24T04:10:34;9.40;99.90
2999;DHT22;1509;51.964;7.628;2023-04-24T04:13:00;9.40;99.90
2999;DHT22;1509;51.964;7.628;2023-04-24T04:15:25;9.30;99.90
2999;DHT22;1509;51.964;7.628;2023-04-24T04:17:51;9.30;99.90
2999;DHT22;1509;51.964;7.628;2023-04-24T04:20:17;9.30;99.90
2999;DHT22;1509;51.964;7.628;2023-04-24T04:22:43;9.40;99.90
2999;DHT22;1509;51.964;7.628;2023-04-24T04:25:08;9.30;99.90
2999;DHT22;1509;51.964;7.628;2023-04-24T04:27:34;9.30;99.90
2999;DHT22;1509;51.964;7.628;2023-04-24T04:30:04;9.30;99.90
2999;DHT22;1509;51.964;7.628;2023-04-24T04:32:32;9.40;99.90
2999;DHT22;1509;51.964;7.628;2023-04-24T04:35:01;9.50;99.90
2999;DHT22;1509;51.964;7.628;2023-04-24T04:37:32;9.50;99.90
2999;DHT22;1509;51.964;7.628;2023-04-24T04:40:02;9.60;99.90
2999;DHT22;1509;51.964;7.628;2023-04-24T04:42:35;9.60;99.90
2999;DHT22;1509;51.964;7.628;2023-04-24T04:45:01;9.60;99.90
2999;DHT22;1509;51.964;7.628;2023-04-24T04:47:29;9.60;99.90
2999;DHT22;1509;51.964;7.628;2023-04-24T04:50:00;9.60;99.90
2999;DHT22;1509;51.964;7.628;2023-04-24T04:52:26;9.80;99.90
2999;DHT22;1509;51.964;7.628;2023-04-24T04:54:52;9.60;99.90
2999;DHT22;1509;51.964;7.628;2023-04-24T04:57:18;9.60;99.90
2999;DHT22;1509;51.964;7.628;2023-04-24T04:59:44;9.60;99.90
2999;DHT22;1509;51.964;7.628;2023-04-24T05:02:10;9.40;99.90
2999;DHT22;1509;51.964;7.628;2023-04-24T05:04:36;9.40;99.90
2999;DHT22;1509;51.964;7.628;2023-04-24T05:07:04;9.30;99.90
2999;DHT22;1509;51.964;7.628;2023-04-24T05:09:30;9.30;99.90
2999;DHT22;1509;51.964;7.628;2023-04-24T05:11:56;9.30;99.90
2999;DHT22;1509;51.964;7.628;2023-04-24T05:14:21;9.40;99.90
2999;DHT22;1509;51.964;7.628;2023-04-24T05:16:48;9.50;99.90
2999;DHT22;1509;51.964;7.628;2023-04-24T05:19:24;9.50;99.90
2999;DHT22;1509;51.964;7.628;2023-04-24T05:21:49;9.50;99.90
2999;DHT22;1509;51.964;7.628;2023-04-24T05:24:15;9.50;99.90
2999;DHT22;1509;51.964;7.628;2023-04-24T05:26:41;9.60;99.90
2999;DHT22;1509;51.964;7.628;2023-04-24T05:29:07;9.60;99.90
2999;DHT22;1509;51.964;7.628;2023-04-24T05:31:32;9.60;99.90
2999;DHT22;1509;51.964;7.628;2023-04-24T05:33:58;9.70;99.90
2999;DHT22;1509;51.964;7.628;2023-04-24T05:36:26;9.70;99.90
2999;DHT22;1509;51.964;7.628;2023-04-24T05:38:52;9.70;99.90
2999;DHT22;1509;51.964;7.628;2023-04-24T05:41:18;9.80;99.90
2999;DHT22;1509;51.964;7.628;2023-04-24T05:43:43;9.80;99.90
2999;DHT22;1509;51.964;7.628;2023-04-24T05:46:12;9.90;99.90
2999;DHT22;1509;51.964;7.628;2023-04-24T05:48:38;9.90;99.90
2999;DHT22;1509;51.964;7.628;2023-04-24T05:51:03;10.00;99.90
2999;DHT22;1509;51.964;7.628;2023-04-24T05:53:29;10.00;99.90
2999;DHT22;1509;51.964;7.628;2023-04-24T05:55:55;10.00;99.90
2999;DHT22;1509;51.964;7.628;2023-04-24T05:58:21;10.00;99.90
2999;DHT22;1509;51.964;7.628;2023-04-24T06:00:47;10.00;99.90
2999;DHT22;1509;51.964;7.628;2023-04-24T06:03:15;9.90;99.90
2999;DHT22;1509;51.964;7.628;2023-04-24T06:05:50;9.90;99.90
2999;DHT22;1509;51.964;7.628;2023-04-24T06:08:17;9.80;99.90
2999;DHT22;1509;51.964;7.628;2023-04-24T06:10:45;9.90;99.90
2999;DHT22;1509;51.964;7.628;2023-04-24T06:13:11;9.90;99.90
2999;DHT22;1509;51.964;7.628;2023-04-24T06:15:37;9.90;99.90
2999;DHT22;1509;51.964;7.628;2023-04-24T06:18:03;9.90;99.90
2999;DHT22;1509;51.964;7.628;2023-04-24T06:20:29;9.90;99.90
2999;DHT22;1509;51.964;7.628;2023-04-24T06:22:58;9.90;99.90
2999;DHT22;1509;51.964;7.628;2023-04-24T06:25:26;9.90;99.90
2999;DHT22;1509;51.964;7.628;2023-04-24T06:27:52;9.90;99.90
2999;DHT22;1509;51.964;7.628;2023-04-24T06:30:21;9.90;99.90
2999;DHT22;1509;51.964;7.628;2023-04-24T06:32:47;9.80;99.90
2999;DHT22;1509;51.964;7.628;2023-04-24T06:35:12;9.90;99.90
2999;DHT22;1509;51.964;7.628;2023-04-24T06:37:42;9.90;99.90
2999;DHT22;1509;51.964;7.628;2023-04-24T06:40:09;9.90;99.90
2999;DHT22;1509;51.964;7.628;2023-04-24T06:42:36;9.90;99.90
2999;DHT22;1509;51.964;7.628;2023-04-24T06:45:02;9.80;99.90
2999;DHT22;1509;51.964;7.628;2023-04-24T06:47:29;9.80;99.90
2999;DHT22;1509;51.964;7.628;2023-04-24T06:49:54;9.70;99.90
2999;DHT22;1509;51.964;7.628;2023-04-24T06:52:20;9.80;99.90
2999;DHT22;1509;51.964;7.628;2023-04-24T06:54:46;9.80;99.90
2999;DHT22;1509;51.964;7.628;2023-04-24T06:57:12;9.90;99.90
2999;DHT22;1509;51.964;7.628;2023-04-24T06:59:38;9.90;99.90
2999;DHT22;1509;51.964;7.628;2023-04-24T07:02:07;10.00;99.90
2999;DHT22;1509;51.964;7.628;2023-04-24T07:04:33;9.90;99.90
2999;DHT22;1509;51.964;7.628;2023-04-24T07:06:59;9.90;99.90
2999;DHT22;1509;51.964;7.628;2023-04-24T07:09:26;9.70;99.90
2999;DHT22;1509;51.964;7.628;2023-04-24T07:11:53;9.80;99.90
2999;DHT22;1509;51.964;7.628;2023-04-24T07:14:20;9.80;99.90
2999;DHT22;1509;51.964;7.628;2023-04-24T07:16:49;9.90;99.90
2999;DHT22;1509;51.964;7.628;2023-04-24T07:19:15;9.90;99.90
2999;DHT22;1509;51.964;7.628;2023-04-24T07:21:41;10.00;99.90
2999;DHT22;1509;51.964;7.628;2023-04-24T07:24:07;9.70;99.90
2999;DHT22;1509;51.964;7.628;2023-04-24T07:26:38;9.70;99.90
2999;DHT22;1509;51.964;7.628;2023-04-24T07:29:06;9.60;99.90
2999;DHT22;1509;51.964;7.628;2023-04-24T07:31:34;9.70;99.90
2999;DHT22;1509;51.964;7.628;2023-04-24T07:34:01;9.70;99.90
2999;DHT22;1509;51.964;7.628;2023-04-24T07:36:29;9.70;99.90
2999;DHT22;1509;51.964;7.628;2023-04-24T07:38:55;9.80;99.90
2999;DHT22;1509;51.964;7.628;2023-04-24T07:41:41;9.80;99.90
2999;DHT22;1509;51.964;7.628;2023-04-24T07:44:07;9.70;99.90
2999;DHT22;1509;51.964;7.628;2023-04-24T07:46:33;9.60;99.90
2999;DHT22;1509;51.964;7.628;2023-04-24T07:48:59;9.50;99.90
2999;DHT22;1509;51.964;7.628;2023-04-24T07:51:33;9.50;99.90
2999;DHT22;1509;51.964;7.628;2023-04-24T07:54:04;9.50;99.90
2999;DHT22;1509;51.964;7.628;2023-04-24T07:56:32;9.30;99.90
2999;DHT22;1509;51.964;7.628;2023-04-24T07:58:58;9.40;99.90
2999;DHT22;1509;51.964;7.628;2023-04-24T08:01:28;9.30;99.90
2999;DHT22;1509;51.964;7.628;2023-04-24T08:03:54;9.40;99.90
2999;DHT22;1509;51.964;7.628;2023-04-24T08:06:19;9.10;99.90
2999;DHT22;1509;51.964;7.628;2023-04-24T08:08:52;9.30;99.90
2999;DHT22;1509;51.964;7.628;2023-04-24T08:11:19;9.30;99.90
2999;DHT22;1509;51.964;7.628;2023-04-24T08:13:45;9.30;99.90
2999;DHT22;1509;51.964;7.628;2023-04-24T08:16:10;9.40;99.90
2999;DHT22;1509;51.964;7.628;2023-04-24T08:18:36;9.30;99.90
2999;DHT22;1509;51.964;7.628;2023-04-24T08:21:02;9.30;99.90
2999;DHT22;1509;51.964;7.628;2023-04-24T08:23:33;9.30;99.90
2999;DHT22;1509;51.964;7.628;2023-04-24T08:25:59;9.30;99.90
2999;DHT22;1509;51.964;7.628;2023-04-24T08:28:25;9.30;99.90
2999;DHT22;1509;51.964;7.628;2023-04-24T08:30:51;9.30;99.90
2999;DHT22;1509;51.964;7.628;2023-04-24T08:33:22;9.30;99.90
2999;DHT22;1509;51.964;7.628;2023-04-24T08:35:48;9.30;99.90
2999;DHT22;1509;51.964;7.628;2023-04-24T08:38:15;9.20;99.90
2999;DHT22;1509;51.964;7.628;2023-04-24T08:40:41;9.20;99.90
2999;DHT22;1509;51.964;7.628;2023-04-24T08:43:07;9.30;99.90
2999;DHT22;1509;51.964;7.628;2023-04-24T08:45:33;9.40;99.90
2999;DHT22;1509;51.964;7.628;2023-04-24T08:47:59;9.30;99.90
2999;DHT22;1509;51.964;7.628;2023-04-24T08:50:25;9.50;99.90
2999;DHT22;1509;51.964;7.628;2023-04-24T08:52:51;9.60;99.90
2999;DHT22;1509;51.964;7.628;2023-04-24T08:55:20;9.60;99.90
2999;DHT22;1509;51.964;7.628;2023-04-24T08:57:50;9.70;99.90
2999;DHT22;1509;51.964;7.628;2023-04-24T09:00:20;9.50;99.90
2999;DHT22;1509;51.964;7.628;2023-04-24T09:02:48;9.60;99.90
2999;DHT22;1509;51.964;7.628;2023-04-24T09:05:16;9.60;99.90
2999;DHT22;1509;51.964;7.628;2023-04-24T09:07:45;9.60;99.90
2999;DHT22;1509;51.964;7.628;2023-04-24T09:10:12;9.70;99.90
2999;DHT22;1509;51.964;7.628;2023-04-24T09:12:38;9.80;99.90
2999;DHT22;1509;51.964;7.628;2023-04-24T09:15:04;9.90;99.90
2999;DHT22;1509;51.964;7.628;2023-04-24T09:17:33;9.90;99.90
2999;DHT22;1509;51.964;7.628;2023-04-24T09:19:59;9.70;99.90
2999;DHT22;1509;51.964;7.628;2023-04-24T09:22:25;9.60;99.90
2999;DHT22;1509;51.964;7.628;2023-04-24T09:25:05;9.60;99.90
2999;DHT22;1509;51.964;7.628;2023-04-24T09:27:33;9.40;99.90
2999;DHT22;1509;51.964;7.628;2023-04-24T09:29:59;9.40;99.90
2999;DHT22;1509;51.964;7.628;2023-04-24T09:32:25;9.20;99.90
2999;DHT22;1509;51.964;7.628;2023-04-24T09:35:14;9.10;99.90
2999;DHT22;1509;51.964;7.628;2023-04-24T09:37:46;9.00;99.90
2999;DHT22;1509;51.964;7.628;2023-04-24T09:40:21;8.90;99.90
2999;DHT22;1509;51.964;7.628;2023-04-24T09:42:55;8.80;99.90
2999;DHT22;1509;51.964;7.628;2023-04-24T09:45:22;8.70;99.90
2999;DHT22;1509;51.964;7.628;2023-04-24T09:47:52;8.60;99.90
2999;DHT22;1509;51.964;7.628;2023-04-24T09:50:30;8.60;99.90
2999;DHT22;1509;51.964;7.628;2023-04-24T09:53:06;8.50;99.90
2999;DHT22;1509;51.964;7.628;2023-04-24T09:55:42;8.50;99.90
2999;DHT22;1509;51.964;7.628;2023-04-24T09:58:10;8.60;99.90
2999;DHT22;1509;51.964;7.628;2023-04-24T10:00:36;8.50;99.90
2999;DHT22;1509;51.964;7.628;2023-04-24T10:03:07;8.40;99.90
2999;DHT22;1509;51.964;7.628;2023-04-24T10:05:35;8.50;99.90
2999;DHT22;1509;51.964;7.628;2023-04-24T10:08:06;8.40;99.90
2999;DHT22;1509;51.964;7.628;2023-04-24T10:10:39;8.50;99.90
2999;DHT22;1509;51.964;7.628;2023-04-24T10:13:06;8.40;99.90
2999;DHT22;1509;51.964;7.628;2023-04-24T10:15:35;8.30;99.90
2999;DHT22;1509;51.964;7.628;2023-04-24T10:18:02;8.40;99.90
2999;DHT22;1509;51.964;7.628;2023-04-24T10:20:30;8.50;99.90
2999;DHT22;1509;51.964;7.628;2023-04-24T10:22:57;8.50;99.90
2999;DHT22;1509;51.964;7.628;2023-04-24T10:25:28;8.70;99.90
2999;DHT22;1509;51.964;7.628;2023-04-24T10:27:55;8.70;99.90
2999;DHT22;1509;51.964;7.628;2023-04-24T10:30:27;8.60;99.90
2999;DHT22;1509;51.964;7.628;2023-04-24T10:32:53;8.70;99.90
2999;DHT22;1509;51.964;7.628;2023-04-24T10:35:19;8.70;99.90
2999;DHT22;1509;51.964;7.628;2023-04-24T10:40:35;8.70;99.90
2999;DHT22;1509;51.964;7.628;2023-04-24T10:43:04;8.70;99.90
2999;DHT22;1509;51.964;7.628;2023-04-24T10:45:35;8.60;99.90
2999;DHT22;1509;51.964;7.628;2023-04-24T10:48:06;8.50;99.90
2999;DHT22;1509;51.964;7.628;2023-04-24T10:50:51;8.50;99.90
2999;DHT22;1509;51.964;7.628;2023-04-24T10:53:22;8.30;99.90
2999;DHT22;1509;51.964;7.628;2023-04-24T10:55:57;8.30;99.90
2999;DHT22;1509;51.964;7.628;2023-04-24T10:58:24;8.10;99.90
2999;DHT22;1509;51.964;7.628;2023-04-24T11:00:59;8.10;99.90
2999;DHT22;1509;51.964;7.628;2023-04-24T11:03:32;8.10;99.90
2999;DHT22;1509;51.964;7.628;2023-04-24T11:06:06;8.10;99.90
2999;DHT22;1509;51.964;7.628;2023-04-24T11:08:42;8.10;99.90
2999;DHT22;1509;51.964;7.628;2023-04-24T11:11:16;8.10;99.90
2999;DHT22;1509;51.964;7.628;2023-04-24T11:16:29;8.20;99.90
2999;DHT22;1509;51.964;7.628;2023-04-24T11:19:25;8.10;99.90
2999;DHT22;1509;51.964;7.628;2023-04-24T11:22:11;8.10;99.90
2999;DHT22;1509;51.964;7.628;2023-04-24T11:27:42;8.10;99.90
2999;DHT22;1509;51.964;7.628;2023-04-24T11:32:43;8.20;99.90
2999;DHT22;1509;51.964;7.628;2023-04-24T12:04:53;8.30;99.90
2999;DHT22;1509;51.964;7.628;2023-04-24T12:07:20;8.10;99.90
2999;DHT22;1509;51.964;7.628;2023-04-24T12:09:58;8.00;99.90
2999;DHT22;1509;51.964;7.628;2023-04-24T12:12:30;8.10;99.90
2999;DHT22;1509;51.964;7.628;2023-04-24T12:14:57;8.10;99.90
2999;DHT22;1509;51.964;7.628;2023-04-24T12:17:34;8.00;99.90
2999;DHT22;1509;51.964;7.628;2023-04-24T12:20:06;8.00;99.90
2999;DHT22;1509;51.964;7.628;2023-04-24T12:22:50;7.90;99.90
2999;DHT22;1509;51.964;7.628;2023-04-24T12:25:18;7.90;99.90
2999;DHT22;1509;51.964;7.628;2023-04-24T12:28:24;8.00;99.90
2999;DHT22;1509;51.964;7.628;2023-04-24T12:30:44;8.00;99.90
2999;DHT22;1509;51.964;7.628;2023-04-24T12:33:10;8.00;99.90
2999;DHT22;1509;51.964;7.628;2023-04-24T12:38:09;8.00;99.90
2999;DHT22;1509;51.964;7.628;2023-04-24T12:40:36;8.00;99.90
2999;DHT22;1509;51.964;7.628;2023-04-24T12:43:02;8.30;99.90
2999;DHT22;1509;51.964;7.628;2023-04-24T12:45:30;8.30;99.90
2999;DHT22;1509;51.964;7.628;2023-04-24T12:47:56;8.40;99.90
2999;DHT22;1509;51.964;7.628;2023-04-24T12:50:22;8.40;99.90
2999;DHT22;1509;51.964;7.628;2023-04-24T12:52:51;8.40;99.90
2999;DHT22;1509;51.964;7.628;2023-04-24T12:55:17;8.40;99.90
2999;DHT22;1509;51.964;7.628;2023-04-24T12:57:45;8.30;99.90
2999;DHT22;1509;51.964;7.628;2023-04-24T13:00:12;8.40;99.90
2999;DHT22;1509;51.964;7.628;2023-04-24T13:02:38;8.30;99.90
2999;DHT22;1509;51.964;7.628;2023-04-24T13:05:06;8.30;99.90
2999;DHT22;1509;51.964;7.628;2023-04-24T13:07:33;8.40;99.90
2999;DHT22;1509;51.964;7.628;2023-04-24T13:09:59;8.40;99.90
2999;DHT22;1509;51.964;7.628;2023-04-24T13:12:25;8.40;99.90
2999;DHT22;1509;51.964;7.628;2023-04-24T13:14:52;8.30;99.90
2999;DHT22;1509;51.964;7.628;2023-04-24T13:17:18;8.40;99.90
2999;DHT22;1509;51.964;7.628;2023-04-24T13:19:44;8.40;99.90
2999;DHT22;1509;51.964;7.628;2023-04-24T13:29:29;5.80;99.90
2999;DHT22;1509;51.964;7.628;2023-04-24T13:31:55;8.80;99.90
2999;DHT22;1509;51.964;7.628;2023-04-24T13:34:22;8.90;99.90
2999;DHT22;1509;51.964;7.628;2023-04-24T13:41:43;9.60;99.90
2999;DHT22;1509;51.964;7.628;2023-04-24T13:44:10;9.50;99.90
2999;DHT22;1509;51.964;7.628;2023-04-24T13:46:36;9.40;99.90
2999;DHT22;1509;51.964;7.628;2023-04-24T13:49:02;9.30;99.90
2999;DHT22;1509;51.964;7.628;2023-04-24T13:51:29;9.30;99.90
2999;DHT22;1509;51.964;7.628;2023-04-24T13:53:58;9.10;99.90
2999;DHT22;1509;51.964;7.628;2023-04-24T13:56:27;9.10;99.90
2999;DHT22;1509;51.964;7.628;2023-04-24T13:58:53;9.10;99.90
2999;DHT22;1509;51.964;7.628;2023-04-24T14:01:21;9.10;99.90
2999;DHT22;1509;51.964;7.628;2023-04-24T14:40:28;9.40;99.90
2999;DHT22;1509;51.964;7.628;2023-04-24T14:42:54;9.50;99.90
2999;DHT22;1509;51.964;7.628;2023-04-24T14:45:19;9.40;99.90
2999;DHT22;1509;51.964;7.628;2023-04-24T14:47:45;9.40;99.90
2999;DHT22;1509;51.964;7.628;2023-04-24T14:50:11;9.40;99.90
2999;DHT22;1509;51.964;7.628;2023-04-24T14:52:38;9.40;99.90
2999;DHT22;1509;51.964;7.628;2023-04-24T14:55:04;9.50;99.90
2999;DHT22;1509;51.964;7.628;2023-04-24T14:57:30;9.60;99.90
2999;DHT22;1509;51.964;7.628;2023-04-24T14:59:55;9.60;99.90
2999;DHT22;1509;51.964;7.628;2023-04-24T15:04:47;9.50;99.90
2999;DHT22;1509;51.964;7.628;2023-04-24T15:07:13;9.40;99.90
2999;DHT22;1509;51.964;7.628;2023-04-24T15:09:38;9.30;99.90
2999;DHT22;1509;51.964;7.628;2023-04-24T15:12:07;9.40;99.90
2999;DHT22;1509;51.964;7.628;2023-04-24T15:14:33;9.30;99.90
2999;DHT22;1509;51.964;7.628;2023-04-24T15:16:58;9.30;99.90
2999;DHT22;1509;51.964;7.628;2023-04-24T15:19:24;9.40;99.90
2999;DHT22;1509;51.964;7.628;2023-04-24T15:21:50;9.50;99.90
2999;DHT22;1509;51.964;7.628;2023-04-24T15:24:15;9.50;99.90
2999;DHT22;1509;51.964;7.628;2023-04-24T15:26:41;9.50;99.90
2999;DHT22;1509;51.964;7.628;2023-04-24T15:29:09;9.60;99.90
2999;DHT22;1509;51.964;7.628;2023-04-24T15:31:35;9.60;99.90
2999;DHT22;1509;51.964;7.628;2023-04-24T15:36:31;9.70;99.90
2999;DHT22;1509;51.964;7.628;2023-04-24T15:38:56;9.70;99.90
2999;DHT22;1509;51.964;7.628;2023-04-24T15:41:22;9.70;99.90
2999;DHT22;1509;51.964;7.628;2023-04-24T15:43:48;9.70;99.90
2999;DHT22;1509;51.964;7.628;2023-04-24T15:46:13;9.70;99.90
2999;DHT22;1509;51.964;7.628;2023-04-24T15:48:39;9.60;99.90
2999;DHT22;1509;51.964;7.628;2023-04-24T15:51:06;9.60;99.90
2999;DHT22;1509;51.964;7.628;2023-04-24T15:53:35;9.60;99.90
2999;DHT22;1509;51.964;7.628;2023-04-24T15:56:01;9.60;99.90
2999;DHT22;1509;51.964;7.628;2023-04-24T15:58:27;9.50;99.90
2999;DHT22;1509;51.964;7.628;2023-04-24T16:00:53;9.40;99.90
2999;DHT22;1509;51.964;7.628;2023-04-24T16:03:19;9.20;99.90
2999;DHT22;1509;51.964;7.628;2023-04-24T16:05:45;9.20;99.90
2999;DHT22;1509;51.964;7.628;2023-04-24T16:08:10;9.20;99.90
2999;DHT22;1509;51.964;7.628;2023-04-24T16:10:38;9.40;99.90
2999;DHT22;1509;51.964;7.628;2023-04-24T16:13:04;9.30;99.90
2999;DHT22;1509;51.964;7.628;2023-04-24T16:15:30;9.30;99.90
2999;DHT22;1509;51.964;7.628;2023-04-24T16:17:55;9.50;99.90
2999;DHT22;1509;51.964;7.628;2023-04-24T16:20:21;9.50;99.90
2999;DHT22;1509;51.964;7.628;2023-04-24T16:22:47;9.50;99.90
2999;DHT22;1509;51.964;7.628;2023-04-24T16:25:12;9.50;99.90
2999;DHT22;1509;51.964;7.628;2023-04-24T16:27:38;9.60;99.90
2999;DHT22;1509;51.964;7.628;2023-04-24T16:30:05;9.40;99.90
2999;DHT22;1509;51.964;7.628;2023-04-24T16:32:30;9.60;99.90
2999;DHT22;1509;51.964;7.628;2023-04-24T16:34:56;9.60;99.90
2999;DHT22;1509;51.964;7.628;2023-04-24T16:37:22;9.80;99.90
2999;DHT22;1509;51.964;7.628;2023-04-24T16:39:47;9.60;99.90
2999;DHT22;1509;51.964;7.628;2023-04-24T16:42:14;9.70;99.90
2999;DHT22;1509;51.964;7.628;2023-04-24T16:44:41;9.80;99.90
2999;DHT22;1509;51.964;7.628;2023-04-24T16:47:07;9.80;99.90
2999;DHT22;1509;51.964;7.628;2023-04-24T16:49:36;9.80;99.90
2999;DHT22;1509;51.964;7.628;2023-04-24T16:52:02;9.70;99.90
2999;DHT22;1509;51.964;7.628;2023-04-24T16:54:28;9.70;99.90
2999;DHT22;1509;51.964;7.628;2023-04-24T16:56:59;9.60;99.90
2999;DHT22;1509;51.964;7.628;2023-04-24T16:59:25;9.70;99.90
2999;DHT22;1509;51.964;7.628;2023-04-24T17:01:51;9.60;99.90
2999;DHT22;1509;51.964;7.628;2023-04-24T17:04:16;10.00;99.90
2999;DHT22;1509;51.964;7.628;2023-04-24T17:06:42;9.80;99.90
2999;DHT22;1509;51.964;7.628;2023-04-24T17:09:08;9.60;99.90
2999;DHT22;1509;51.964;7.628;2023-04-24T17:11:33;9.80;99.90
2999;DHT22;1509;51.964;7.628;2023-04-24T17:13:59;9.80;99.90
2999;DHT22;1509;51.964;7.628;2023-04-24T17:16:25;9.80;99.90
2999;DHT22;1509;51.964;7.628;2023-04-24T17:18:51;9.70;99.90
2999;DHT22;1509;51.964;7.628;2023-04-24T17:21:16;9.70;99.90
2999;DHT22;1509;51.964;7.628;2023-04-24T17:23:42;9.70;99.90
2999;DHT22;1509;51.964;7.628;2023-04-24T17:26:08;9.80;99.90
2999;DHT22;1509;51.964;7.628;2023-04-24T17:28:34;9.80;99.90
2999;DHT22;1509;51.964;7.628;2023-04-24T17:30:59;9.90;99.90
2999;DHT22;1509;51.964;7.628;2023-04-24T17:33:29;9.80;99.90
2999;DHT22;1509;51.964;7.628;2023-04-24T17:35:58;9.80;99.90
2999;DHT22;1509;51.964;7.628;2023-04-24T17:38:26;9.70;99.90
2999;DHT22;1509;51.964;7.628;2023-04-24T17:40:52;9.80;99.90
2999;DHT22;1509;51.964;7.628;2023-04-24T17:43:18;9.80;99.90
2999;DHT22;1509;51.964;7.628;2023-04-24T17:45:49;9.60;99.90
2999;DHT22;1509;51.964;7.628;2023-04-24T17:48:15;9.70;99.90
2999;DHT22;1509;51.964;7.628;2023-04-24T17:50:42;9.70;99.90
2999;DHT22;1509;51.964;7.628;2023-04-24T17:53:08;9.70;99.90